sensor_id;sensor_type;location;lat;lon;timestamp;P1;durP1;ratioP1;P2;durP2;ratioP2
30249;SDS011;17064;47.974;13.826;2023-10-13T00:03:12;4.03;;;2.03;;
30249;SDS011;17064;47.974;13.826;2023-10-13T00:08:16;6.40;;;2.30;;
30249;SDS011;17064;47.974;13.826;2023-10-13T00:13:17;10.35;;;2.83;;
30249;SDS011;17064;47.974;13.826;2023-10-13T00:18:20;7.40;;;2.17;;
30249;SDS011;17064;47.974;13.826;2023-10-13T00:23:21;6.60;;;1.80;;
30249;SDS011;17064;47.974;13.826;2023-10-13T00:28:25;5.13;;;2.25;;
30249;SDS011;17064;47.974;13.826;2023-10-13T00:33:41;5.60;;;2.35;;
30249;SDS011;17064;47.974;13.826;2023-10-13T00:38:41;5.43;;;2.38;;
30249;SDS011;17064;47.974;13.826;2023-10-13T00:43:46;7.60;;;2.38;;
30249;SDS011;17064;47.974;13.826;2023-10-13T00:49:07;5.38;;;2.60;;
30249;SDS011;17064;47.974;13.826;2023-10-13T00:54:09;7.18;;;2.75;;
30249;SDS011;17064;47.974;13.826;2023-10-13T00:59:13;8.30;;;2.85;;
30249;SDS011;17064;47.974;13.826;2023-10-13T01:04:14;3.58;;;2.08;;
30249;SDS011;17064;47.974;13.826;2023-10-13T01:09:15;8.00;;;2.97;;
30249;SDS011;17064;47.974;13.826;2023-10-13T01:14:19;4.65;;;2.20;;
30249;SDS011;17064;47.974;13.826;2023-10-13T01:19:21;4.10;;;2.13;;
30249;SDS011;17064;47.974;13.826;2023-10-13T01:24:25;7.32;;;2.67;;
30249;SDS011;17064;47.974;13.826;2023-10-13T01:29:31;10.50;;;2.47;;
30249;SDS011;17064;47.974;13.826;2023-10-13T01:34:31;7.95;;;1.92;;
30249;SDS011;17064;47.974;13.826;2023-10-13T01:39:33;6.72;;;2.50;;
30249;SDS011;17064;47.974;13.826;2023-10-13T01:44:34;3.90;;;1.60;;
30249;SDS011;17064;47.974;13.826;2023-10-13T01:49:36;7.70;;;1.95;;
30249;SDS011;17064;47.974;13.826;2023-10-13T01:54:42;7.22;;;2.05;;
30249;SDS011;17064;47.974;13.826;2023-10-13T01:59:49;4.30;;;2.00;;
30249;SDS011;17064;47.974;13.826;2023-10-13T02:04:50;6.22;;;1.92;;
30249;SDS011;17064;47.974;13.826;2023-10-13T02:09:56;5.88;;;2.03;;
30249;SDS011;17064;47.974;13.826;2023-10-13T02:14:57;5.20;;;2.75;;
30249;SDS011;17064;47.974;13.826;2023-10-13T02:20:01;6.50;;;1.98;;
30249;SDS011;17064;47.974;13.826;2023-10-13T02:25:08;7.10;;;2.13;;
30249;SDS011;17064;47.974;13.826;2023-10-13T02:30:16;5.55;;;1.90;;
30249;SDS011;17064;47.974;13.826;2023-10-13T02:35:23;6.28;;;2.03;;
30249;SDS011;17064;47.974;13.826;2023-10-13T02:40:34;5.60;;;1.77;;
30249;SDS011;17064;47.974;13.826;2023-10-13T02:45:35;7.72;;;2.15;;
30249;SDS011;17064;47.974;13.826;2023-10-13T02:50:39;7.57;;;1.75;;
30249;SDS011;17064;47.974;13.826;2023-10-13T02:55:52;5.25;;;1.35;;
30249;SDS011;17064;47.974;13.826;2023-10-13T03:00:56;4.55;;;2.00;;
30249;SDS011;17064;47.974;13.826;2023-10-13T03:05:58;6.25;;;2.20;;
30249;SDS011;17064;47.974;13.826;2023-10-13T03:11:00;7.40;;;2.20;;
30249;SDS011;17064;47.974;13.826;2023-10-13T03:16:12;3.65;;;1.88;;
30249;SDS011;17064;47.974;13.826;2023-10-13T03:21:15;4.68;;;1.80;;
30249;SDS011;17064;47.974;13.826;2023-10-13T03:26:28;5.90;;;2.03;;
30249;SDS011;17064;47.974;13.826;2023-10-13T03:31:29;3.45;;;1.88;;
30249;SDS011;17064;47.974;13.826;2023-10-13T03:36:30;6.82;;;2.25;;
30249;SDS011;17064;47.974;13.826;2023-10-13T03:41:49;7.63;;;2.45;;
30249;SDS011;17064;47.974;13.826;2023-10-13T03:46:53;8.05;;;2.03;;
30249;SDS011;17064;47.974;13.826;2023-10-13T03:51:55;5.70;;;2.15;;
30249;SDS011;17064;47.974;13.826;2023-10-13T03:56:57;4.87;;;2.20;;
30249;SDS011;17064;47.974;13.826;2023-10-13T04:02:04;6.10;;;2.10;;
30249;SDS011;17064;47.974;13.826;2023-10-13T04:07:12;8.48;;;3.05;;
30249;SDS011;17064;47.974;13.826;2023-10-13T04:12:13;8.75;;;2.42;;
30249;SDS011;17064;47.974;13.826;2023-10-13T04:17:33;4.00;;;2.25;;
30249;SDS011;17064;47.974;13.826;2023-10-13T04:22:46;5.05;;;2.30;;
30249;SDS011;17064;47.974;13.826;2023-10-13T04:27:46;5.22;;;2.03;;
30249;SDS011;17064;47.974;13.826;2023-10-13T04:33:05;8.75;;;3.10;;
30249;SDS011;17064;47.974;13.826;2023-10-13T04:38:17;8.00;;;2.45;;
30249;SDS011;17064;47.974;13.826;2023-10-13T04:43:20;8.85;;;2.20;;
30249;SDS011;17064;47.974;13.826;2023-10-13T04:48:33;9.43;;;1.98;;
30249;SDS011;17064;47.974;13.826;2023-10-13T04:53:38;5.97;;;1.98;;
30249;SDS011;17064;47.974;13.826;2023-10-13T04:58:59;9.38;;;2.60;;
30249;SDS011;17064;47.974;13.826;2023-10-13T05:04:17;5.15;;;2.13;;
30249;SDS011;17064;47.974;13.826;2023-10-13T05:09:38;9.57;;;2.55;;
30249;SDS011;17064;47.974;13.826;2023-10-13T05:14:58;7.78;;;2.45;;
30249;SDS011;17064;47.974;13.826;2023-10-13T05:20:17;4.60;;;1.90;;
30249;SDS011;17064;47.974;13.826;2023-10-13T05:25:37;5.85;;;1.98;;
30249;SDS011;17064;47.974;13.826;2023-10-13T05:30:59;7.90;;;2.40;;
30249;SDS011;17064;47.974;13.826;2023-10-13T05:36:18;4.43;;;2.00;;
30249;SDS011;17064;47.974;13.826;2023-10-13T05:41:51;9.20;;;2.65;;
30249;SDS011;17064;47.974;13.826;2023-10-13T05:47:10;8.77;;;3.05;;
30249;SDS011;17064;47.974;13.826;2023-10-13T05:52:29;8.70;;;2.33;;
30249;SDS011;17064;47.974;13.826;2023-10-13T05:57:48;14.38;;;2.65;;
30249;SDS011;17064;47.974;13.826;2023-10-13T06:03:08;16.45;;;2.60;;
30249;SDS011;17064;47.974;13.826;2023-10-13T06:08:27;9.73;;;2.55;;
30249;SDS011;17064;47.974;13.826;2023-10-13T06:13:46;7.78;;;2.60;;
30249;SDS011;17064;47.974;13.826;2023-10-13T06:19:06;11.02;;;2.60;;
30249;SDS011;17064;47.974;13.826;2023-10-13T06:24:25;8.02;;;2.17;;
30249;SDS011;17064;47.974;13.826;2023-10-13T06:29:45;9.18;;;1.98;;
30249;SDS011;17064;47.974;13.826;2023-10-13T06:34:46;5.88;;;2.22;;
30249;SDS011;17064;47.974;13.826;2023-10-13T06:39:50;10.70;;;2.40;;
30249;SDS011;17064;47.974;13.826;2023-10-13T06:44:57;4.40;;;1.98;;
30249;SDS011;17064;47.974;13.826;2023-10-13T06:50:00;6.28;;;2.22;;
30249;SDS011;17064;47.974;13.826;2023-10-13T06:55:01;11.02;;;2.67;;
30249;SDS011;17064;47.974;13.826;2023-10-13T07:00:05;5.53;;;1.92;;
30249;SDS011;17064;47.974;13.826;2023-10-13T07:05:11;7.28;;;2.40;;
30249;SDS011;17064;47.974;13.826;2023-10-13T07:10:14;7.28;;;2.42;;
30249;SDS011;17064;47.974;13.826;2023-10-13T07:15:16;10.07;;;2.53;;
30249;SDS011;17064;47.974;13.826;2023-10-13T07:20:17;5.18;;;1.90;;
30249;SDS011;17064;47.974;13.826;2023-10-13T07:25:24;4.03;;;1.80;;
30249;SDS011;17064;47.974;13.826;2023-10-13T07:30:26;8.63;;;2.55;;
30249;SDS011;17064;47.974;13.826;2023-10-13T07:35:27;4.93;;;1.98;;
30249;SDS011;17064;47.974;13.826;2023-10-13T07:40:31;13.13;;;3.17;;
30249;SDS011;17064;47.974;13.826;2023-10-13T07:45:31;8.27;;;2.67;;
30249;SDS011;17064;47.974;13.826;2023-10-13T07:50:39;7.20;;;2.20;;
30249;SDS011;17064;47.974;13.826;2023-10-13T07:55:40;7.35;;;2.00;;
30249;SDS011;17064;47.974;13.826;2023-10-13T08:00:40;4.80;;;2.22;;
30249;SDS011;17064;47.974;13.826;2023-10-13T08:05:45;10.90;;;3.17;;
30249;SDS011;17064;47.974;13.826;2023-10-13T08:11:19;5.15;;;1.95;;
30249;SDS011;17064;47.974;13.826;2023-10-13T08:16:34;8.13;;;1.60;;
30249;SDS011;17064;47.974;13.826;2023-10-13T08:21:57;4.72;;;1.80;;
30249;SDS011;17064;47.974;13.826;2023-10-13T08:26:59;8.10;;;1.92;;
30249;SDS011;17064;47.974;13.826;2023-10-13T08:32:34;10.15;;;2.25;;
30249;SDS011;17064;47.974;13.826;2023-10-13T08:37:54;8.52;;;2.28;;
30249;SDS011;17064;47.974;13.826;2023-10-13T08:42:54;6.88;;;2.40;;
30249;SDS011;17064;47.974;13.826;2023-10-13T08:48:07;10.53;;;2.03;;
30249;SDS011;17064;47.974;13.826;2023-10-13T08:53:12;8.30;;;2.10;;
30249;SDS011;17064;47.974;13.826;2023-10-13T08:58:33;4.45;;;1.80;;
30249;SDS011;17064;47.974;13.826;2023-10-13T09:03:54;6.68;;;1.90;;
30249;SDS011;17064;47.974;13.826;2023-10-13T09:09:17;8.73;;;2.20;;
30249;SDS011;17064;47.974;13.826;2023-10-13T09:14:40;5.95;;;2.10;;
30249;SDS011;17064;47.974;13.826;2023-10-13T09:19:49;3.88;;;1.50;;
30249;SDS011;17064;47.974;13.826;2023-10-13T09:24:57;7.25;;;1.92;;
30249;SDS011;17064;47.974;13.826;2023-10-13T09:29:59;3.83;;;1.95;;
30249;SDS011;17064;47.974;13.826;2023-10-13T09:35:19;3.05;;;1.80;;
30249;SDS011;17064;47.974;13.826;2023-10-13T09:40:23;7.43;;;2.38;;
30249;SDS011;17064;47.974;13.826;2023-10-13T09:45:47;3.78;;;1.55;;
30249;SDS011;17064;47.974;13.826;2023-10-13T09:51:11;6.30;;;2.45;;
30249;SDS011;17064;47.974;13.826;2023-10-13T09:56:26;8.55;;;1.92;;
30249;SDS011;17064;47.974;13.826;2023-10-13T10:01:32;5.25;;;2.00;;
30249;SDS011;17064;47.974;13.826;2023-10-13T10:06:37;8.48;;;1.80;;
30249;SDS011;17064;47.974;13.826;2023-10-13T10:22:07;6.22;;;1.88;;
30249;SDS011;17064;47.974;13.826;2023-10-13T10:27:34;6.10;;;1.88;;
30249;SDS011;17064;47.974;13.826;2023-10-13T10:32:36;4.25;;;1.63;;
30249;SDS011;17064;47.974;13.826;2023-10-13T10:37:40;4.82;;;2.03;;
30249;SDS011;17064;47.974;13.826;2023-10-13T10:42:50;6.20;;;1.98;;
30249;SDS011;17064;47.974;13.826;2023-10-13T10:47:52;5.15;;;1.77;;
30249;SDS011;17064;47.974;13.826;2023-10-13T10:52:58;4.88;;;1.55;;
30249;SDS011;17064;47.974;13.826;2023-10-13T10:58:00;6.18;;;1.80;;
30249;SDS011;17064;47.974;13.826;2023-10-13T11:03:26;4.57;;;1.88;;
30249;SDS011;17064;47.974;13.826;2023-10-13T11:08:26;5.05;;;1.58;;
30249;SDS011;17064;47.974;13.826;2023-10-13T11:13:44;3.97;;;1.40;;
30249;SDS011;17064;47.974;13.826;2023-10-13T11:19:01;4.38;;;1.50;;
30249;SDS011;17064;47.974;13.826;2023-10-13T11:24:07;4.88;;;1.95;;
30249;SDS011;17064;47.974;13.826;2023-10-13T11:29:11;4.15;;;1.45;;
30249;SDS011;17064;47.974;13.826;2023-10-13T11:34:12;16.30;;;2.53;;
30249;SDS011;17064;47.974;13.826;2023-10-13T11:39:16;5.00;;;1.67;;
30249;SDS011;17064;47.974;13.826;2023-10-13T11:44:23;5.70;;;1.75;;
30249;SDS011;17064;47.974;13.826;2023-10-13T11:49:24;6.07;;;1.90;;
30249;SDS011;17064;47.974;13.826;2023-10-13T11:54:27;5.43;;;2.42;;
30249;SDS011;17064;47.974;13.826;2023-10-13T11:59:28;4.70;;;2.00;;
30249;SDS011;17064;47.974;13.826;2023-10-13T12:04:29;4.07;;;1.77;;
30249;SDS011;17064;47.974;13.826;2023-10-13T12:09:49;5.78;;;1.70;;
30249;SDS011;17064;47.974;13.826;2023-10-13T12:14:56;10.32;;;2.10;;
30249;SDS011;17064;47.974;13.826;2023-10-13T12:19:57;7.03;;;1.73;;
30249;SDS011;17064;47.974;13.826;2023-10-13T12:24:59;5.60;;;1.77;;
30249;SDS011;17064;47.974;13.826;2023-10-13T12:30:04;8.85;;;2.10;;
30249;SDS011;17064;47.974;13.826;2023-10-13T12:35:13;8.50;;;1.60;;
30249;SDS011;17064;47.974;13.826;2023-10-13T12:40:15;4.77;;;2.13;;
30249;SDS011;17064;47.974;13.826;2023-10-13T12:45:41;5.05;;;1.77;;
30249;SDS011;17064;47.974;13.826;2023-10-13T12:51:01;6.43;;;1.60;;
30249;SDS011;17064;47.974;13.826;2023-10-13T12:56:20;4.38;;;1.70;;
30249;SDS011;17064;47.974;13.826;2023-10-13T13:01:25;5.60;;;1.92;;
30249;SDS011;17064;47.974;13.826;2023-10-13T13:06:32;5.25;;;1.85;;
30249;SDS011;17064;47.974;13.826;2023-10-13T13:11:33;7.20;;;1.80;;
30249;SDS011;17064;47.974;13.826;2023-10-13T13:16:39;3.28;;;1.60;;
30249;SDS011;17064;47.974;13.826;2023-10-13T13:21:40;4.90;;;1.47;;
30249;SDS011;17064;47.974;13.826;2023-10-13T13:26:41;6.18;;;1.33;;
30249;SDS011;17064;47.974;13.826;2023-10-13T13:31:42;3.30;;;1.87;;
30249;SDS011;17064;47.974;13.826;2023-10-13T13:36:43;5.10;;;1.45;;
30249;SDS011;17064;47.974;13.826;2023-10-13T13:41:44;3.58;;;1.25;;
30249;SDS011;17064;47.974;13.826;2023-10-13T13:46:45;10.60;;;2.23;;
30249;SDS011;17064;47.974;13.826;2023-10-13T13:51:46;11.17;;;1.73;;
30249;SDS011;17064;47.974;13.826;2023-10-13T13:56:52;4.05;;;1.40;;
30249;SDS011;17064;47.974;13.826;2023-10-13T14:01:54;7.67;;;1.80;;
30249;SDS011;17064;47.974;13.826;2023-10-13T14:06:59;3.85;;;1.50;;
30249;SDS011;17064;47.974;13.826;2023-10-13T14:12:00;3.00;;;1.53;;
30249;SDS011;17064;47.974;13.826;2023-10-13T14:17:19;3.40;;;1.40;;
30249;SDS011;17064;47.974;13.826;2023-10-13T14:22:20;6.13;;;1.57;;
30249;SDS011;17064;47.974;13.826;2023-10-13T14:27:24;10.10;;;2.05;;
30249;SDS011;17064;47.974;13.826;2023-10-13T14:32:26;8.77;;;2.23;;
30249;SDS011;17064;47.974;13.826;2023-10-13T14:42:30;2.95;;;1.50;;
30249;SDS011;17064;47.974;13.826;2023-10-13T14:47:35;10.80;;;1.65;;
30249;SDS011;17064;47.974;13.826;2023-10-13T14:52:39;9.73;;;1.77;;
30249;SDS011;17064;47.974;13.826;2023-10-13T14:57:40;4.03;;;2.10;;
30249;SDS011;17064;47.974;13.826;2023-10-13T15:02:41;8.17;;;2.10;;
30249;SDS011;17064;47.974;13.826;2023-10-13T15:07:43;4.80;;;1.90;;
30249;SDS011;17064;47.974;13.826;2023-10-13T15:17:45;5.65;;;1.85;;
30249;SDS011;17064;47.974;13.826;2023-10-13T15:22:48;10.65;;;2.05;;
30249;SDS011;17064;47.974;13.826;2023-10-13T15:27:48;2.63;;;1.45;;
30249;SDS011;17064;47.974;13.826;2023-10-13T15:33:02;4.60;;;1.83;;
30249;SDS011;17064;47.974;13.826;2023-10-13T15:38:05;7.57;;;1.80;;
30249;SDS011;17064;47.974;13.826;2023-10-13T15:43:06;4.38;;;2.03;;
30249;SDS011;17064;47.974;13.826;2023-10-13T15:48:10;7.30;;;2.47;;
30249;SDS011;17064;47.974;13.826;2023-10-13T15:53:11;8.25;;;2.08;;
30249;SDS011;17064;47.974;13.826;2023-10-13T15:58:15;4.47;;;1.83;;
30249;SDS011;17064;47.974;13.826;2023-10-13T16:03:16;8.52;;;2.38;;
30249;SDS011;17064;47.974;13.826;2023-10-13T16:08:17;6.57;;;2.22;;
30249;SDS011;17064;47.974;13.826;2023-10-13T16:13:18;4.43;;;2.38;;
30249;SDS011;17064;47.974;13.826;2023-10-13T16:18:20;5.40;;;1.93;;
30249;SDS011;17064;47.974;13.826;2023-10-13T16:23:22;4.15;;;2.30;;
30249;SDS011;17064;47.974;13.826;2023-10-13T16:28:23;5.35;;;2.30;;
30249;SDS011;17064;47.974;13.826;2023-10-13T16:33:24;12.38;;;2.67;;
30249;SDS011;17064;47.974;13.826;2023-10-13T16:38:25;4.40;;;2.15;;
30249;SDS011;17064;47.974;13.826;2023-10-13T16:43:26;5.90;;;2.20;;
30249;SDS011;17064;47.974;13.826;2023-10-13T16:48:26;3.90;;;2.22;;
30249;SDS011;17064;47.974;13.826;2023-10-13T16:53:27;7.20;;;2.53;;
30249;SDS011;17064;47.974;13.826;2023-10-13T16:58:28;4.63;;;2.45;;
30249;SDS011;17064;47.974;13.826;2023-10-13T17:03:34;3.95;;;2.58;;
30249;SDS011;17064;47.974;13.826;2023-10-13T17:08:37;8.40;;;2.17;;
30249;SDS011;17064;47.974;13.826;2023-10-13T17:13:41;5.13;;;2.28;;
30249;SDS011;17064;47.974;13.826;2023-10-13T17:23:45;3.40;;;2.03;;
30249;SDS011;17064;47.974;13.826;2023-10-13T17:28:46;4.90;;;2.40;;
30249;SDS011;17064;47.974;13.826;2023-10-13T17:33:47;6.60;;;2.83;;
30249;SDS011;17064;47.974;13.826;2023-10-13T17:38:48;8.60;;;3.63;;
30249;SDS011;17064;47.974;13.826;2023-10-13T17:43:49;4.03;;;2.67;;
30249;SDS011;17064;47.974;13.826;2023-10-13T17:48:50;3.55;;;2.60;;
30249;SDS011;17064;47.974;13.826;2023-10-13T17:53:55;10.27;;;3.22;;
30249;SDS011;17064;47.974;13.826;2023-10-13T17:58:57;8.63;;;3.10;;
30249;SDS011;17064;47.974;13.826;2023-10-13T18:03:59;6.88;;;3.13;;
30249;SDS011;17064;47.974;13.826;2023-10-13T18:09:04;10.32;;;2.95;;
30249;SDS011;17064;47.974;13.826;2023-10-13T18:14:11;6.45;;;3.33;;
30249;SDS011;17064;47.974;13.826;2023-10-13T18:19:12;12.27;;;4.13;;
30249;SDS011;17064;47.974;13.826;2023-10-13T18:24:14;15.67;;;5.33;;
30249;SDS011;17064;47.974;13.826;2023-10-13T18:29:15;16.05;;;5.05;;
30249;SDS011;17064;47.974;13.826;2023-10-13T18:34:17;12.68;;;4.75;;
30249;SDS011;17064;47.974;13.826;2023-10-13T18:39:19;11.57;;;4.45;;
30249;SDS011;17064;47.974;13.826;2023-10-13T18:44:24;15.20;;;6.47;;
30249;SDS011;17064;47.974;13.826;2023-10-13T18:49:27;13.77;;;4.93;;
30249;SDS011;17064;47.974;13.826;2023-10-13T18:54:28;11.73;;;4.32;;
30249;SDS011;17064;47.974;13.826;2023-10-13T18:59:29;13.35;;;4.55;;
30249;SDS011;17064;47.974;13.826;2023-10-13T19:04:33;11.32;;;4.50;;
30249;SDS011;17064;47.974;13.826;2023-10-13T19:09:35;13.80;;;4.65;;
30249;SDS011;17064;47.974;13.826;2023-10-13T19:19:39;10.07;;;4.25;;
30249;SDS011;17064;47.974;13.826;2023-10-13T19:24:40;10.63;;;3.70;;
30249;SDS011;17064;47.974;13.826;2023-10-13T19:29:42;13.27;;;5.37;;
30249;SDS011;17064;47.974;13.826;2023-10-13T19:34:44;9.75;;;4.10;;
30249;SDS011;17064;47.974;13.826;2023-10-13T19:39:45;11.27;;;4.63;;
30249;SDS011;17064;47.974;13.826;2023-10-13T19:44:46;10.32;;;4.25;;
30249;SDS011;17064;47.974;13.826;2023-10-13T19:49:48;8.10;;;3.42;;
30249;SDS011;17064;47.974;13.826;2023-10-13T19:54:49;8.10;;;3.20;;
30249;SDS011;17064;47.974;13.826;2023-10-13T19:59:51;8.43;;;3.35;;
30249;SDS011;17064;47.974;13.826;2023-10-13T20:04:53;6.65;;;2.95;;
30249;SDS011;17064;47.974;13.826;2023-10-13T20:09:56;7.90;;;3.35;;
30249;SDS011;17064;47.974;13.826;2023-10-13T20:14:57;6.90;;;2.75;;
30249;SDS011;17064;47.974;13.826;2023-10-13T20:19:58;9.52;;;3.40;;
30249;SDS011;17064;47.974;13.826;2023-10-13T20:25:00;5.20;;;2.97;;
30249;SDS011;17064;47.974;13.826;2023-10-13T20:30:01;7.80;;;3.28;;
30249;SDS011;17064;47.974;13.826;2023-10-13T20:35:10;5.00;;;2.92;;
30249;SDS011;17064;47.974;13.826;2023-10-13T20:40:11;6.05;;;2.55;;
30249;SDS011;17064;47.974;13.826;2023-10-13T20:45:23;7.55;;;2.60;;
30249;SDS011;17064;47.974;13.826;2023-10-13T20:50:24;6.50;;;2.63;;
30249;SDS011;17064;47.974;13.826;2023-10-13T20:55:24;5.15;;;2.55;;
30249;SDS011;17064;47.974;13.826;2023-10-13T21:00:25;7.70;;;2.90;;
30249;SDS011;17064;47.974;13.826;2023-10-13T21:05:26;9.32;;;3.00;;
30249;SDS011;17064;47.974;13.826;2023-10-13T21:10:26;7.03;;;2.42;;
30249;SDS011;17064;47.974;13.826;2023-10-13T21:15:27;4.88;;;2.78;;
30249;SDS011;17064;47.974;13.826;2023-10-13T21:20:28;6.30;;;2.80;;
30249;SDS011;17064;47.974;13.826;2023-10-13T21:25:29;8.57;;;2.70;;
30249;SDS011;17064;47.974;13.826;2023-10-13T21:30:35;12.27;;;3.20;;
30249;SDS011;17064;47.974;13.826;2023-10-13T21:35:36;8.85;;;2.70;;
30249;SDS011;17064;47.974;13.826;2023-10-13T21:45:40;7.93;;;2.92;;
30249;SDS011;17064;47.974;13.826;2023-10-13T21:50:41;8.77;;;3.10;;
30249;SDS011;17064;47.974;13.826;2023-10-13T21:55:42;6.50;;;3.17;;
30249;SDS011;17064;47.974;13.826;2023-10-13T22:00:43;7.82;;;2.97;;
30249;SDS011;17064;47.974;13.826;2023-10-13T22:05:55;5.18;;;2.42;;
30249;SDS011;17064;47.974;13.826;2023-10-13T22:10:56;5.78;;;3.00;;
30249;SDS011;17064;47.974;13.826;2023-10-13T22:15:57;6.45;;;2.78;;
30249;SDS011;17064;47.974;13.826;2023-10-13T22:20:58;4.93;;;2.80;;
30249;SDS011;17064;47.974;13.826;2023-10-13T22:25:59;4.55;;;2.45;;
30249;SDS011;17064;47.974;13.826;2023-10-13T22:30:59;11.30;;;3.55;;
30249;SDS011;17064;47.974;13.826;2023-10-13T22:36:00;4.57;;;2.55;;
30249;SDS011;17064;47.974;13.826;2023-10-13T22:41:04;11.20;;;3.22;;
30249;SDS011;17064;47.974;13.826;2023-10-13T22:46:07;11.60;;;3.53;;
30249;SDS011;17064;47.974;13.826;2023-10-13T22:51:08;6.90;;;2.95;;
30249;SDS011;17064;47.974;13.826;2023-10-13T22:56:10;7.40;;;2.95;;
30249;SDS011;17064;47.974;13.826;2023-10-13T23:01:11;11.70;;;3.22;;
30249;SDS011;17064;47.974;13.826;2023-10-13T23:06:17;6.60;;;2.83;;
30249;SDS011;17064;47.974;13.826;2023-10-13T23:11:21;6.05;;;3.30;;
30249;SDS011;17064;47.974;13.826;2023-10-13T23:16:31;8.98;;;2.95;;
30249;SDS011;17064;47.974;13.826;2023-10-13T23:21:33;7.93;;;3.25;;
30249;SDS011;17064;47.974;13.826;2023-10-13T23:26:38;7.80;;;3.17;;
30249;SDS011;17064;47.974;13.826;2023-10-13T23:31:38;6.00;;;3.47;;
30249;SDS011;17064;47.974;13.826;2023-10-13T23:36:39;7.70;;;3.85;;
30249;SDS011;17064;47.974;13.826;2023-10-13T23:41:41;11.20;;;3.80;;
30249;SDS011;17064;47.974;13.826;2023-10-13T23:46:42;13.68;;;4.50;;
30249;SDS011;17064;47.974;13.826;2023-10-13T23:51:46;6.18;;;3.72;;
30249;SDS011;17064;47.974;13.826;2023-10-13T23:56:53;6.50;;;3.75;;
